Time;durP1;ratioP1;P1;durP2;ratioP2;P2;SDS_P1;SDS_P2;PMS_P1;PMS_P2;Temp;Humidity;BMP_temperature;BMP_pressure;BME280_temperature;BME280_humidity;BME280_pressure;Samples;Min_cycle;Max_cycle;Signal;HPM_P1;HPM_P2
2021/12/06 00:01:00;;;;;;;363.80;174.68;;;;;;;14.83;100.00;98970.38;5048745;28;20444;-68
2021/12/06 00:04:33;;;;;;;352.73;172.38;;;;;;;14.90;100.00;98964.00;5045339;28;20049;-68
2021/12/06 00:07:16;;;;;;;365.10;173.13;;;;;;;14.82;100.00;98967.84;5021615;28;20049;-68
2021/12/06 00:10:08;;;;;;;349.33;171.40;;;;;;;14.86;100.00;98970.22;5036130;28;20080;-69
2021/12/06 00:12:57;;;;;;;359.88;168.77;;;;;;;14.79;100.00;98968.78;5028235;28;20040;-68
2021/12/06 00:15:43;;;;;;;345.92;165.73;;;;;;;14.75;100.00;98972.44;5028555;28;20059;-68
2021/12/06 00:18:32;;;;;;;352.20;164.45;;;;;;;14.73;100.00;98973.41;5045583;28;20052;-69
2021/12/06 00:21:14;;;;;;;342.15;168.10;;;;;;;14.70;100.00;98971.78;5045935;28;20084;-69
2021/12/06 00:24:03;;;;;;;345.20;167.27;;;;;;;14.74;100.00;98973.34;5045896;28;20053;-68
2021/12/06 00:26:45;;;;;;;351.35;170.52;;;;;;;14.71;100.00;98975.22;5045546;28;20822;-69
2021/12/06 00:29:37;;;;;;;368.13;167.38;;;;;;;14.73;100.00;98978.59;5045519;28;20041;-69
2021/12/06 00:32:20;;;;;;;347.98;168.45;;;;;;;14.66;100.00;98979.75;5007888;28;20053;-68
2021/12/06 00:35:13;;;;;;;353.98;167.20;;;;;;;14.66;100.00;98975.41;5007939;28;20065;-68
2021/12/06 00:37:58;;;;;;;344.13;164.45;;;;;;;14.62;100.00;98984.22;5026036;28;20054;-68
2021/12/06 00:40:53;;;;;;;329.40;161.40;;;;;;;14.58;100.00;98981.81;5002275;28;20056;-68
2021/12/06 00:43:49;;;;;;;342.25;160.20;;;;;;;14.52;100.00;98988.13;5027840;28;20049;-68
2021/12/06 00:46:26;;;;;;;340.35;158.40;;;;;;;14.49;100.00;98996.00;5027534;28;20049;-69
2021/12/06 00:49:21;;;;;;;;;;;;;;;14.45;100.00;98995.28;5038859;28;20143;-68
2021/12/06 00:52:10;;;;;;;340.80;157.38;;;;;;;14.47;100.00;98990.03;5047315;28;20344;-68
2021/12/06 00:54:59;;;;;;;324.25;157.00;;;;;;;14.40;100.00;98996.38;5050516;28;20582;-69
2021/12/06 00:57:42;;;;;;;334.60;155.98;;;;;;;14.37;100.00;98992.13;5069103;28;20094;-68
2021/12/06 01:00:39;;;;;;;337.40;159.77;;;;;;;14.40;100.00;98996.38;5068511;28;20499;-68
2021/12/06 01:03:33;;;;;;;327.73;158.68;;;;;;;14.38;100.00;98992.97;5062586;28;20045;-68
2021/12/06 01:06:18;;;;;;;341.63;159.88;;;;;;;14.34;100.00;98994.84;5031669;28;20056;-69
2021/12/06 01:09:06;;;;;;;331.95;158.15;;;;;;;14.33;100.00;99000.09;5049781;28;20151;-68
2021/12/06 01:11:49;;;;;;;327.70;159.13;;;;;;;14.32;100.00;99003.59;5062208;28;20048;-69
2021/12/06 01:14:38;;;;;;;343.27;157.82;;;;;;;14.26;100.00;99006.41;5048839;28;20068;-68
2021/12/06 01:17:20;;;;;;;337.50;159.93;;;;;;;14.23;100.00;99017.75;5048646;28;20137;-68
2021/12/06 01:20:12;;;;;;;332.75;161.65;;;;;;;14.23;100.00;99017.75;5047491;28;20059;-67
2021/12/06 01:23:00;;;;;;;329.55;160.95;;;;;;;14.24;100.00;99021.19;5051250;28;20098;-68
2021/12/06 01:32:11;;;;;;;340.63;162.02;;;;;;;14.23;100.00;99035.03;5031165;28;20337;-68
2021/12/06 01:41:08;;;;;;;360.05;171.85;;;;;;;14.20;100.00;99055.91;5050046;28;20084;-69
2021/12/06 01:44:58;;;;;;;371.30;182.50;;;;;;;14.19;100.00;99057.66;5051217;28;20044;-69
2021/12/06 01:47:48;;;;;;;369.38;179.20;;;;;;;14.22;100.00;99065.28;4971632;28;20705;-70
2021/12/06 01:50:33;;;;;;;399.92;185.07;;;;;;;14.27;100.00;99065.13;4969892;28;20090;-69
2021/12/06 01:53:22;;;;;;;374.40;180.07;;;;;;;14.26;100.00;99066.03;5046613;28;20072;-68
2021/12/06 01:56:04;;;;;;;372.35;180.32;;;;;;;14.25;100.00;99070.38;5046965;28;20052;-68
2021/12/06 01:58:53;;;;;;;371.95;180.80;;;;;;;14.31;100.00;99074.47;5042989;28;20140;-69
2021/12/06 02:01:36;;;;;;;382.33;182.75;;;;;;;14.33;100.00;99081.28;5050545;28;20067;-68
2021/12/06 02:04:28;;;;;;;363.55;177.75;;;;;;;14.44;100.00;99078.31;5053586;28;20079;-69
2021/12/06 02:07:15;;;;;;;383.45;187.40;;;;;;;14.44;100.00;99086.94;5067332;28;20116;-68
2021/12/06 02:10:07;;;;;;;403.55;188.75;;;;;;;14.43;100.00;99090.44;5058096;28;20611;-68
2021/12/06 02:12:58;;;;;;;396.67;188.27;;;;;;;14.29;100.00;99089.22;5051312;28;20048;-68
2021/12/06 02:15:52;;;;;;;385.48;186.63;;;;;;;14.23;100.00;99103.25;5068061;28;20052;-68
2021/12/06 02:18:48;;;;;;;366.00;187.38;;;;;;;14.22;100.00;99096.38;5050054;28;20049;-69
2021/12/06 02:21:41;;;;;;;398.88;195.05;;;;;;;14.34;100.00;99095.94;5068034;28;20036;-69
2021/12/06 02:24:34;;;;;;;;;;;;;;;14.27;100.00;99106.59;5068413;28;20044;-69
2021/12/06 02:27:17;;;;;;;357.23;169.52;;;;;;;14.20;100.00;99107.72;5049506;28;19959;-69
2021/12/06 02:30:08;;;;;;;370.75;166.85;;;;;;;14.20;100.00;99105.97;5050099;28;20044;-69
2021/12/06 02:32:52;;;;;;;327.50;152.82;;;;;;;14.18;100.00;99111.22;5049895;28;20067;-69
2021/12/06 02:35:41;;;;;;;319.08;148.00;;;;;;;14.34;100.00;99113.22;5067193;28;20144;-69
2021/12/06 02:38:23;;;;;;;296.27;146.23;;;;;;;14.37;100.00;99110.50;5066063;28;20049;-68
2021/12/06 02:41:13;;;;;;;297.90;145.75;;;;;;;14.43;100.00;99118.09;5039861;28;20052;-69
2021/12/06 02:43:57;;;;;;;328.98;148.73;;;;;;;14.44;100.00;99125.81;5033402;28;20048;-69
2021/12/06 02:46:46;;;;;;;369.20;166.18;;;;;;;14.54;100.00;99131.47;5047855;28;20055;-69
2021/12/06 02:49:37;;;;;;;333.98;155.27;;;;;;;14.58;100.00;99139.97;5044584;28;20128;-69
2021/12/06 02:52:25;;;;;;;314.17;146.95;;;;;;;14.60;100.00;99139.03;5044782;28;20132;-69
2021/12/06 03:01:31;;;;;;;275.90;131.65;;;;;;;14.77;100.00;99146.13;5053879;28;20422;-68
2021/12/06 03:04:13;;;;;;;263.40;129.82;;;;;;;14.88;100.00;99155.19;5043840;28;20059;-69
2021/12/06 03:07:04;;;;;;;268.15;127.80;;;;;;;14.97;100.00;99158.31;5049430;28;20133;-69
2021/12/06 03:09:51;;;;;;;261.77;121.60;;;;;;;15.09;100.00;99158.66;5048478;28;20103;-69
2021/12/06 03:12:41;;;;;;;234.43;117.20;;;;;;;15.23;100.00;99174.53;5048799;28;20056;-69
2021/12/06 03:15:25;;;;;;;250.80;116.18;;;;;;;15.30;100.00;99165.56;5048331;28;20114;-70
2021/12/06 03:18:16;;;;;;;238.57;112.63;;;;;;;15.38;100.00;99173.03;5048404;28;20129;-70
2021/12/06 03:20:59;;;;;;;245.48;112.78;;;;;;;15.55;100.00;99170.63;5032923;28;20040;-70
2021/12/06 03:23:50;;;;;;;242.90;110.63;;;;;;;15.73;100.00;99175.91;5049461;28;20105;-70
2021/12/06 03:26:35;;;;;;;247.98;112.50;;;;;;;15.89;100.00;99179.53;5049296;28;20044;-70
2021/12/06 03:29:25;;;;;;;235.98;114.38;;;;;;;16.05;100.00;99185.75;5067546;28;20052;-71
2021/12/06 03:32:22;;;;;;;237.90;119.63;;;;;;;16.22;100.00;99183.25;5056319;28;20048;-69
2021/12/06 03:34:58;;;;;;;251.20;117.63;;;;;;;16.41;100.00;99184.13;5048722;28;20044;-69
2021/12/06 03:37:50;;;;;;;249.20;116.15;;;;;;;16.63;100.00;99189.22;5048551;28;20051;-70
2021/12/06 03:40:33;;;;;;;244.82;120.60;;;;;;;16.91;100.00;99193.13;5043019;28;20490;-70
2021/12/06 03:43:29;;;;;;;250.65;116.63;;;;;;;16.99;100.00;99207.47;5059326;28;20086;-69
2021/12/06 03:46:08;;;;;;;237.40;108.75;;;;;;;17.10;100.00;99210.38;5062625;28;20149;-69
2021/12/06 03:49:05;;;;;;;194.82;97.32;;;;;;;17.20;100.00;99209.03;5044217;28;20377;-69
2021/12/06 03:51:56;;;;;;;190.55;95.72;;;;;;;17.36;100.00;99213.50;5070131;28;20048;-69
2021/12/06 03:54:39;;;;;;;;;;;;;;;17.48;100.00;99218.94;5047096;28;20093;-69
2021/12/06 03:57:35;;;;;;;171.02;90.72;;;;;;;17.70;100.00;99223.97;5047662;28;19936;-70
2021/12/06 04:00:14;;;;;;;177.45;90.88;;;;;;;17.93;100.00;99233.22;5022232;28;20639;-69
2021/12/06 04:03:06;;;;;;;192.18;92.28;;;;;;;18.06;100.00;99236.03;5064275;28;20048;-69
2021/12/06 04:05:55;;;;;;;195.50;98.70;;;;;;;18.08;100.00;99234.19;5033646;28;20494;-69
2021/12/06 04:08:40;;;;;;;192.43;98.07;;;;;;;18.22;100.00;99248.19;5048278;28;20057;-70
2021/12/06 04:11:30;;;;;;;191.82;102.78;;;;;;;18.40;100.00;99249.00;5065574;28;20060;-70
2021/12/06 04:14:13;;;;;;;204.13;100.20;;;;;;;18.44;100.00;99247.09;5047315;28;20072;-69
2021/12/06 04:17:02;;;;;;;197.52;102.53;;;;;;;18.53;100.00;99251.81;5051771;28;20484;-68
2021/12/06 04:19:45;;;;;;;215.60;108.60;;;;;;;18.45;100.00;99256.59;5042455;28;20056;-69
2021/12/06 04:22:34;;;;;;;220.52;107.88;;;;;;;18.36;100.00;99250.06;5049228;28;20052;-69
2021/12/06 04:25:19;;;;;;;228.82;111.22;;;;;;;18.76;100.00;99256.66;5069218;28;20053;-69
2021/12/06 04:28:14;;;;;;;227.15;114.45;;;;;;;18.75;100.00;99259.38;5051531;28;20040;-69
2021/12/06 04:31:04;;;;;;;245.68;121.10;;;;;;;18.63;100.00;99259.09;5054928;28;20048;-69
2021/12/06 04:33:46;;;;;;;;;;;;;;;18.90;100.00;99255.94;5052466;28;20442;-70
2021/12/06 04:36:51;;;;;;;254.85;118.38;;;;;;;19.02;100.00;99260.47;5045143;28;19924;-69
2021/12/06 04:39:34;;;;;;;250.20;121.75;;;;;;;19.10;100.00;99258.28;5049555;28;20135;-69
2021/12/06 04:42:31;;;;;;;242.50;117.18;;;;;;;19.05;100.00;99258.53;5068124;28;20058;-69
2021/12/06 04:45:09;;;;;;;237.15;115.03;;;;;;;19.39;100.00;99259.28;5051398;28;20068;-68
2021/12/06 04:48:05;;;;;;;239.63;111.32;;;;;;;19.48;99.86;99257.00;5035302;28;20041;-69
2021/12/06 04:50:54;;;;;;;242.75;113.35;;;;;;;19.41;100.00;99258.25;5049711;27;20060;-68
2021/12/06 04:53:43;;;;;;;222.50;113.82;;;;;;;19.50;100.00;99256.91;5033032;28;20087;-68
2021/12/06 04:56:36;;;;;;;222.38;109.00;;;;;;;19.60;100.00;99258.06;5044154;28;20472;-68
2021/12/06 04:59:21;;;;;;;212.02;108.43;;;;;;;19.77;100.00;99259.72;5042987;28;20494;-69
2021/12/06 05:02:24;;;;;;;218.23;106.70;;;;;;;19.77;98.72;99254.50;5036313;28;20132;-69
2021/12/06 05:05:21;;;;;;;217.82;106.28;;;;;;;20.16;98.82;99259.13;5045829;28;20142;-68
2021/12/06 05:08:19;;;;;;;211.00;104.45;;;;;;;20.22;98.74;99258.75;5045361;28;20127;-68
2021/12/06 05:11:06;;;;;;;227.05;101.88;;;;;;;20.12;97.71;99255.84;5018210;28;20147;-68
2021/12/06 05:13:57;;;;;;;201.50;102.03;;;;;;;20.02;96.54;99251.28;5018521;28;20776;-68
2021/12/06 05:16:40;;;;;;;207.32;101.72;;;;;;;20.19;95.15;99256.34;5064257;28;20045;-68
2021/12/06 05:19:31;;;;;;;191.20;100.55;;;;;;;20.34;96.32;99250.22;5057537;28;20053;-68
2021/12/06 05:22:18;;;;;;;197.38;99.03;;;;;;;20.55;93.52;99245.44;5049835;28;20794;-68
2021/12/06 05:25:08;;;;;;;178.98;93.72;;;;;;;20.66;92.11;99244.78;5050768;28;20044;-68
2021/12/06 05:28:00;;;;;;;178.77;95.13;;;;;;;20.81;91.77;99246.44;5050997;28;20040;-67
2021/12/06 05:30:48;;;;;;;191.88;96.05;;;;;;;20.89;91.52;99242.41;5047968;28;20048;-67
2021/12/06 05:33:37;;;;;;;180.43;94.60;;;;;;;21.19;90.69;99241.41;5067223;28;20048;-67
2021/12/06 05:36:21;;;;;;;191.27;95.18;;;;;;;21.17;89.01;99238.03;5066068;28;20064;-68
2021/12/06 05:39:09;;;;;;;192.73;96.10;;;;;;;21.53;89.21;99233.03;5065085;28;20083;-68
2021/12/06 05:42:00;;;;;;;179.38;95.47;;;;;;;21.38;87.81;99240.13;5068385;28;20421;-67
2021/12/06 05:44:43;;;;;;;189.50;94.80;;;;;;;21.55;85.39;99241.63;5068638;28;20542;-68
2021/12/06 05:47:33;;;;;;;191.70;93.40;;;;;;;21.59;85.41;99245.75;5063667;28;20119;-68
2021/12/06 05:50:23;;;;;;;182.18;92.30;;;;;;;21.86;83.92;99242.22;5062057;28;20048;-65
2021/12/06 05:53:11;;;;;;;160.15;87.07;;;;;;;21.87;84.26;99239.47;5064571;28;20136;-70
2021/12/06 05:56:01;;;;;;;163.43;85.43;;;;;;;22.00;82.73;99234.28;5065221;28;20048;-69
2021/12/06 05:58:43;;;;;;;170.45;87.35;;;;;;;21.85;79.18;99241.38;5049646;28;20688;-67
2021/12/06 06:01:33;;;;;;;157.13;83.88;;;;;;;21.93;79.53;99246.97;5063299;28;20446;-68
2021/12/06 06:04:15;;;;;;;167.27;85.80;;;;;;;21.92;80.23;99233.94;5048145;28;20772;-68
2021/12/06 06:07:06;;;;;;;163.88;86.93;;;;;;;21.99;80.79;99235.22;5047412;28;20048;-68
2021/12/06 06:09:48;;;;;;;154.95;84.57;;;;;;;22.19;79.29;99237.31;5065647;28;20049;-65
2021/12/06 06:12:38;;;;;;;142.25;80.65;;;;;;;22.04;76.75;99233.13;5066087;28;20151;-65
2021/12/06 06:18:10;;;;;;;142.60;76.65;;;;;;;22.25;77.19;99230.84;5050548;28;20050;-66
2021/12/06 06:20:59;;;;;;;130.52;70.20;;;;;;;22.18;74.42;99234.81;5060521;28;20049;-67
2021/12/06 06:29:17;;;;;;;137.02;69.28;;;;;;;22.38;78.19;99216.75;5064303;28;20064;-68
2021/12/06 06:34:50;;;;;;;132.65;65.32;;;;;;;22.36;75.15;99205.50;5045734;28;20125;-70
2021/12/06 06:37:39;;;;;;;120.97;65.22;;;;;;;22.14;76.65;99200.06;5062651;28;20135;-72
2021/12/06 06:43:10;;;;;;;126.15;60.60;;;;;;;22.37;74.33;99198.47;5060856;28;20064;-70
2021/12/06 06:45:53;;;;;;;109.32;56.88;;;;;;;22.25;73.35;99187.06;5074687;28;20288;-69
2021/12/06 06:48:42;;;;;;;108.10;55.72;;;;;;;22.44;74.79;99194.47;5064013;28;20058;-67
2021/12/06 06:51:32;;;;;;;111.43;56.77;;;;;;;22.09;74.15;99194.31;4718085;28;9507475;-70
2021/12/06 06:54:21;;;;;;;108.57;55.05;;;;;;;22.00;74.37;99185.28;5065534;28;20758;-67
2021/12/06 06:57:04;;;;;;;109.05;57.13;;;;;;;22.03;74.93;99179.78;5065890;28;20044;-64
2021/12/06 06:59:52;;;;;;;115.50;61.05;;;;;;;22.18;74.88;99183.19;5049013;28;20040;-66
2021/12/06 07:02:43;;;;;;;127.20;64.97;;;;;;;22.25;74.30;99184.44;5058582;28;20048;-64
2021/12/06 07:05:28;;;;;;;143.02;67.35;;;;;;;22.22;75.40;99174.13;5064628;28;20086;-63
2021/12/06 07:08:17;;;;;;;126.38;65.60;;;;;;;22.17;76.59;99175.41;5058621;28;20478;-65
2021/12/06 07:11:07;;;;;;;126.47;63.63;;;;;;;22.15;76.10;99172.88;5065444;28;20143;-63
2021/12/06 07:13:50;;;;;;;117.32;61.97;;;;;;;22.24;75.63;99174.88;5063293;28;20036;-66
2021/12/06 07:16:46;;;;;;;113.88;58.00;;;;;;;22.17;73.52;99171.00;5064186;28;20066;-64
2021/12/06 07:19:35;;;;;;;115.13;58.33;;;;;;;22.24;74.22;99167.00;5054260;28;20410;-64
2021/12/06 07:22:26;;;;;;;120.03;57.10;;;;;;;22.31;73.38;99159.53;5056705;28;20045;-64
2021/12/06 07:25:17;;;;;;;107.63;54.92;;;;;;;22.37;73.60;99156.44;5068248;28;20053;-65
2021/12/06 07:28:00;;;;;;;112.00;57.25;;;;;;;22.46;73.78;99151.41;5065996;28;20673;-63
2021/12/06 07:30:48;;;;;;;121.90;59.08;;;;;;;22.34;74.08;99146.19;5055846;28;20083;-66
2021/12/06 07:33:32;;;;;;;120.85;60.20;;;;;;;22.34;74.26;99143.56;5044450;28;20048;-64
2021/12/06 07:36:23;;;;;;;109.82;56.22;;;;;;;22.24;73.55;99140.75;5063262;28;20139;-65
2021/12/06 07:39:07;;;;;;;105.25;55.60;;;;;;;22.14;76.11;99135.28;5062114;28;20060;-63
2021/12/06 07:41:59;;;;;;;108.57;57.85;;;;;;;22.09;76.35;99128.69;5063585;28;20040;-63
2021/12/06 07:44:51;;;;;;;114.18;58.10;;;;;;;22.00;76.59;99131.94;5062467;28;20040;-63
2021/12/06 07:47:37;;;;;;;112.88;58.95;;;;;;;22.06;77.76;99131.53;5047321;28;20052;-65
2021/12/06 07:50:29;;;;;;;109.95;57.70;;;;;;;22.13;78.00;99119.66;5060959;28;20041;-63
2021/12/06 07:53:18;;;;;;;110.38;57.05;;;;;;;22.09;75.61;99126.91;5062253;28;20101;-66
2021/12/06 07:56:08;;;;;;;114.78;58.08;;;;;;;22.01;77.09;99120.50;5060649;28;20076;-63
2021/12/06 07:58:57;;;;;;;118.60;59.47;;;;;;;22.04;77.82;99117.66;5042406;28;20102;-65
2021/12/06 08:01:47;;;;;;;123.05;63.00;;;;;;;22.00;79.39;99116.22;5063208;28;20060;-65
2021/12/06 08:04:38;;;;;;;120.70;62.13;;;;;;;22.12;78.92;99107.47;5065238;28;20416;-66
2021/12/06 08:07:23;;;;;;;117.20;59.80;;;;;;;22.21;78.64;99106.81;5061338;28;20048;-64
2021/12/06 08:10:12;;;;;;;121.80;64.22;;;;;;;22.27;79.93;99093.25;5064247;28;20355;-68
2021/12/06 08:12:55;;;;;;;115.78;64.40;;;;;;;22.25;80.39;99099.59;5062696;28;20092;-65
2021/12/06 08:15:45;;;;;;;119.82;61.97;;;;;;;22.25;78.97;99095.16;5063365;28;20052;-64
2021/12/06 08:18:28;;;;;;;118.40;62.40;;;;;;;22.06;79.16;99086.91;5063490;28;20731;-62
2021/12/06 08:21:19;;;;;;;128.52;61.70;;;;;;;22.14;79.31;99089.84;5062819;28;20044;-62
2021/12/06 08:24:04;;;;;;;109.82;60.03;;;;;;;22.07;77.10;99088.59;5064585;28;20036;-63
2021/12/06 08:26:53;;;;;;;103.50;55.15;;;;;;;21.95;76.35;99082.38;5045069;28;20049;-66
2021/12/06 08:29:40;;;;;;;106.68;53.45;;;;;;;21.89;74.32;99076.72;5054051;28;20052;-67
2021/12/06 08:32:29;;;;;;;96.38;50.50;;;;;;;21.95;73.01;99074.50;5061550;28;20119;-66
2021/12/06 08:35:42;;;;;;;87.13;45.95;;;;;;;21.97;71.74;99074.44;5062531;28;20052;-66
2021/12/06 08:38:29;;;;;;;88.85;42.05;;;;;;;22.01;71.81;99068.88;5065255;28;20040;-65
2021/12/06 08:41:22;;;;;;;119.05;58.40;;;;;;;22.23;78.32;99070.81;5050718;28;20866;-69
2021/12/06 08:44:14;;;;;;;173.80;86.60;;;;;;;22.21;77.18;99070.06;5030002;28;20048;-71
2021/12/06 08:46:57;;;;;;;175.48;87.20;;;;;;;22.33;81.35;99061.34;5076272;28;20051;-69
2021/12/06 08:49:54;;;;;;;123.95;69.57;;;;;;;22.30;78.35;99061.53;5077412;28;20049;-72
2021/12/06 08:52:43;;;;;;;156.75;83.93;;;;;;;22.37;81.74;99060.16;5045393;28;20129;-71
2021/12/06 08:55:33;;;;;;;112.38;61.40;;;;;;;22.33;80.16;99055.25;5064331;28;20130;-72
2021/12/06 08:58:16;;;;;;;113.00;61.28;;;;;;;22.36;81.44;99053.22;5069160;28;20055;-71
2021/12/06 09:01:07;;;;;;;97.28;43.47;;;;;;;22.20;72.62;99054.44;5055355;28;20052;-71
2021/12/06 09:03:49;;;;;;;72.28;39.75;;;;;;;22.16;71.89;99053.81;5058858;28;20061;-73
2021/12/06 09:06:39;;;;;;;86.75;44.50;;;;;;;22.16;75.03;99045.94;5073720;28;20475;-74
2021/12/06 09:09:22;;;;;;;70.75;38.42;;;;;;;22.16;71.51;99053.81;5081940;28;20032;-71
2021/12/06 09:12:12;;;;;;;73.35;38.55;;;;;;;22.14;72.13;99051.31;5072037;28;20044;-72
2021/12/06 09:14:58;;;;;;;57.97;32.85;;;;;;;22.04;68.96;99042.41;5067619;28;20562;-71
2021/12/06 09:17:48;;;;;;;68.65;36.47;;;;;;;22.06;70.07;99039.69;5067925;28;20052;-77
2021/12/06 09:20:36;;;;;;;65.32;33.85;;;;;;;22.01;69.54;99037.38;5050738;28;20441;-73
2021/12/06 09:23:26;;;;;;;70.60;35.28;;;;;;;21.95;69.77;99032.53;5066736;28;20149;-74
2021/12/06 09:26:17;;;;;;;72.88;36.53;;;;;;;21.96;69.25;99031.56;5061630;28;20059;-74
2021/12/06 09:29:00;;;;;;;88.25;37.78;;;;;;;21.97;72.09;99028.03;5050959;28;20048;-71
2021/12/06 09:31:59;;;;;;;77.95;34.50;;;;;;;21.93;70.04;99031.81;5072918;28;20561;-71
2021/12/06 09:34:39;;;;;;;59.58;31.25;;;;;;;21.85;69.84;99025.44;5069034;28;20547;-69
2021/12/06 09:37:28;;;;;;;71.72;37.63;;;;;;;21.94;71.70;99024.78;5038102;28;20590;-76
2021/12/06 09:40:18;;;;;;;71.18;32.95;;;;;;;21.94;71.17;99027.41;5070819;28;20409;-73
2021/12/06 09:43:11;;;;;;;70.93;34.25;;;;;;;21.85;71.04;99023.66;5074111;28;20040;-77
2021/12/06 09:45:57;;;;;;;67.53;34.08;;;;;;;21.88;72.46;99022.56;5050614;28;20757;-74
2021/12/06 09:48:48;;;;;;;71.05;34.15;;;;;;;21.95;74.06;99023.84;5074461;28;20052;-71
2021/12/06 09:51:33;;;;;;;63.78;37.08;;;;;;;21.89;72.35;99019.00;5057555;27;20704;-74
2021/12/06 09:54:26;;;;;;;67.32;34.15;;;;;;;21.83;73.00;99016.81;5052149;28;20048;-71
2021/12/06 09:57:16;;;;;;;60.20;33.93;;;;;;;21.83;72.84;99020.28;5049469;28;20491;-75
2021/12/06 09:59:58;;;;;;;69.85;34.25;;;;;;;21.83;74.86;99014.19;5048448;28;20045;-76
2021/12/06 10:02:50;;;;;;;59.35;31.05;;;;;;;21.73;71.84;99027.13;5045814;28;20900;-74
2021/12/06 10:05:32;;;;;;;68.43;32.10;;;;;;;21.75;74.79;99025.22;5045384;28;20087;-78
2021/12/06 10:08:22;;;;;;;69.57;33.85;;;;;;;21.73;74.96;99027.97;5048394;28;20439;-75
2021/12/06 10:10:58;;;;;;;62.53;31.58;;;;;;;21.72;74.78;99022.81;5048783;28;20566;-76
2021/12/06 10:13:48;;;;;;;64.75;33.97;;;;;;;21.67;74.17;99017.91;5032896;28;20051;-77
2021/12/06 10:16:32;;;;;;;65.05;32.60;;;;;;;21.65;75.16;99032.06;5048954;28;20044;-77
2021/12/06 10:19:29;;;;;;;76.22;31.80;;;;;;;21.73;74.74;99024.50;5039500;28;20045;-74
2021/12/06 10:22:05;;;;;;;63.22;35.45;;;;;;;21.80;78.53;99025.72;5044188;28;20083;-71
2021/12/06 10:24:58;;;;;;;67.97;34.00;;;;;;;21.80;78.84;99020.50;5046580;28;20136;-75
2021/12/06 10:28:07;;;;;;;69.32;34.13;;;;;;;21.79;78.81;99025.88;5045385;28;20049;-73
2021/12/06 10:31:05;;;;;;;78.47;38.00;;;;;;;21.76;83.69;99025.13;5008435;28;20052;-73
2021/12/06 10:33:55;;;;;;;69.63;36.08;;;;;;;21.72;82.17;99025.44;5036754;28;20132;-69
2021/12/06 10:36:44;;;;;;;73.97;37.33;;;;;;;21.71;84.38;99027.22;5036023;28;20052;-72
2021/12/06 10:39:43;;;;;;;73.03;36.03;;;;;;;21.70;85.17;99030.81;5042914;28;20057;-73
2021/12/06 10:42:33;;;;;;;67.03;35.38;;;;;;;21.67;85.61;99028.38;5046838;28;20087;-72
2021/12/06 10:45:26;;;;;;;64.30;35.80;;;;;;;21.66;85.63;99029.34;5044522;28;20055;-73
2021/12/06 10:48:14;;;;;;;64.07;34.45;;;;;;;21.61;84.21;99036.69;5037151;28;20037;-71
2021/12/06 10:51:12;;;;;;;66.00;33.40;;;;;;;21.60;85.94;99031.56;5045405;28;20055;-71
2021/12/06 10:54:03;;;;;;;70.43;34.42;;;;;;;21.57;84.37;99032.59;5071626;28;20063;-71
2021/12/06 10:56:55;;;;;;;58.28;33.33;;;;;;;21.60;84.04;99028.94;5066304;28;20044;-71
2021/12/06 10:59:45;;;;;;;67.22;35.28;;;;;;;21.39;79.97;99041.75;5035731;28;20523;-64
2021/12/06 11:02:27;;;;;;;74.50;35.30;;;;;;;21.21;82.01;99037.75;5067782;28;20680;-64
2021/12/06 11:05:34;;;;;;;77.05;35.17;;;;;;;21.07;83.77;99038.66;5069327;28;20050;-66
2021/12/06 11:08:26;;;;;;;75.78;34.33;;;;;;;20.94;85.77;99041.22;5068383;28;20039;-65
2021/12/06 11:11:26;;;;;;;72.40;34.60;;;;;;;20.83;85.32;99038.47;5071284;28;20045;-67
2021/12/06 11:14:14;;;;;;;71.97;34.73;;;;;;;20.68;86.37;99039.50;5072984;28;20086;-66
2021/12/06 11:17:21;;;;;;;91.45;36.58;;;;;;;20.59;85.80;99037.50;5071287;28;20559;-67
2021/12/06 11:20:21;;;;;;;73.60;34.72;;;;;;;20.48;87.32;99034.72;5072101;28;20044;-64
2021/12/06 11:23:14;;;;;;;80.30;37.33;;;;;;;20.47;87.91;99046.97;5070803;28;20475;-66
2021/12/06 11:26:04;;;;;;;78.50;35.85;;;;;;;20.42;90.17;99038.59;5070200;28;20147;-67
2021/12/06 11:28:47;;;;;;;72.47;37.95;;;;;;;20.27;91.20;99040.34;5071312;28;20482;-67
2021/12/06 11:31:37;;;;;;;75.30;36.13;;;;;;;20.16;92.22;99047.22;5072976;28;20076;-66
2021/12/06 11:34:21;;;;;;;81.40;36.53;;;;;;;20.09;93.49;99046.75;5071747;28;20064;-68
2021/12/06 11:37:36;;;;;;;79.47;37.45;;;;;;;20.01;93.79;99053.41;5057081;28;20048;-66
2021/12/06 11:40:38;;;;;;;84.20;38.72;;;;;;;19.94;95.75;99063.41;5072669;28;20052;-66
2021/12/06 11:43:37;;;;;;;84.78;40.92;;;;;;;19.83;96.51;99060.63;5073288;28;20460;-67
2021/12/06 11:46:21;;;;;;;81.13;40.33;;;;;;;19.72;98.35;99063.03;5037395;28;20047;-65
2021/12/06 11:49:32;;;;;;;87.00;39.15;;;;;;;19.59;98.90;99060.34;5070412;28;20494;-66
2021/12/06 11:52:28;;;;;;;84.50;39.92;;;;;;;19.50;100.00;99060.91;5049625;28;20044;-66
2021/12/06 11:55:19;;;;;;;84.45;42.65;;;;;;;19.44;100.00;99063.84;5065824;28;20649;-68
2021/12/06 11:58:03;;;;;;;101.07;42.53;;;;;;;19.32;100.00;99064.56;5070415;28;20044;-66
2021/12/06 12:01:14;;;;;;;86.90;40.28;;;;;;;19.19;100.00;99066.22;5075007;28;20036;-68
2021/12/06 12:04:00;;;;;;;95.22;40.70;;;;;;;19.17;100.00;99066.31;5071138;28;20072;-67
2021/12/06 12:07:03;;;;;;;85.03;38.77;;;;;;;19.01;100.00;99063.75;5052891;28;20036;-66
2021/12/06 12:09:52;;;;;;;104.13;39.38;;;;;;;18.94;100.00;99074.66;5077247;28;20052;-68
2021/12/06 12:12:53;;;;;;;83.43;38.65;;;;;;;18.83;100.00;99071.84;5067364;28;20122;-64
2021/12/06 12:15:44;;;;;;;98.57;39.63;;;;;;;18.74;100.00;99083.66;5070832;28;20040;-64
2021/12/06 12:18:27;;;;;;;91.40;41.63;;;;;;;18.73;100.00;99082.81;5065574;28;20049;-65
2021/12/06 12:21:17;;;;;;;83.35;38.20;;;;;;;18.68;100.00;99090.03;5060020;28;20075;-65
2021/12/06 12:23:59;;;;;;;92.43;39.80;;;;;;;18.60;100.00;99094.84;5071715;28;20068;-65
2021/12/06 12:27:29;;;;;;;81.82;37.25;;;;;;;18.58;100.00;99098.47;5054243;28;20124;-66
2021/12/06 12:30:13;;;;;;;76.28;37.72;;;;;;;18.51;100.00;99103.19;5059644;28;20059;-67
2021/12/06 12:32:50;;;;;;;78.60;37.03;;;;;;;18.48;100.00;99105.09;5031224;28;20051;-69
2021/12/06 12:35:42;;;;;;;90.70;36.50;;;;;;;18.39;100.00;99105.59;5065004;28;20132;-65
2021/12/06 12:38:34;;;;;;;95.68;37.33;;;;;;;18.31;100.00;99111.25;5048816;28;20155;-68
2021/12/06 12:41:28;;;;;;;90.25;37.58;;;;;;;18.34;100.00;99111.09;5067204;28;20410;-68
2021/12/06 12:44:13;;;;;;;87.45;39.47;;;;;;;18.32;100.00;99112.94;5056694;28;20040;-65
2021/12/06 12:47:16;;;;;;;84.75;38.95;;;;;;;18.26;100.00;99115.88;5065668;28;20056;-67
2021/12/06 12:50:15;;;;;;;79.43;37.53;;;;;;;18.20;100.00;99124.00;5076459;28;20052;-66
2021/12/06 12:53:15;;;;;;;80.97;37.65;;;;;;;18.20;100.00;99129.22;5074286;28;20058;-67
2021/12/06 12:55:57;;;;;;;84.57;38.93;;;;;;;18.20;100.00;99124.84;5070250;28;20052;-68
2021/12/06 12:58:46;;;;;;;93.88;38.45;;;;;;;18.14;100.00;99130.41;5075822;28;20049;-65
2021/12/06 13:01:44;;;;;;;89.97;37.72;;;;;;;18.05;100.00;99132.66;5069259;28;20480;-66
2021/12/06 13:04:27;;;;;;;74.05;37.47;;;;;;;18.08;100.00;99129.91;5074174;28;20053;-68
2021/12/06 13:07:23;;;;;;;76.68;37.72;;;;;;;18.07;100.00;99143.84;5076320;28;20143;-68
2021/12/06 13:10:23;;;;;;;101.35;39.63;;;;;;;18.06;100.00;99139.56;5073983;28;20040;-69
2021/12/06 13:13:29;;;;;;;82.65;38.95;;;;;;;17.92;100.00;99138.53;5063895;28;20048;-68
2021/12/06 13:16:41;;;;;;;101.90;39.22;;;;;;;17.93;100.00;99142.81;5067514;28;20059;-67
2021/12/06 13:22:52;;;;;;;98.72;38.72;;;;;;;17.81;100.00;99147.81;5081689;28;20135;-67
2021/12/06 13:25:44;;;;;;;93.90;41.35;;;;;;;17.97;100.00;99149.53;5080926;28;20093;-62